Time;durP1;ratioP1;P1;durP2;ratioP2;P2;SDS_P1;SDS_P2;PMS_P1;PMS_P2;Temp;Humidity;BMP_temperature;BMP_pressure;BME280_temperature;BME280_humidity;BME280_pressure;Samples;Min_cycle;Max_cycle;Signal;HPM_P1;HPM_P2
2021/08/15 00:00:11;;;;;;;13.52;6.70;;;;;;;;;;5109049;28;20022;-68
2021/08/15 00:02:37;;;;;;;15.88;6.18;;;;;;;;;;5092725;28;20069;-67
2021/08/15 00:05:04;;;;;;;17.27;6.38;;;;;;;;;;5113686;28;20516;-67
2021/08/15 00:07:30;;;;;;;12.77;5.80;;;;;;;;;;5092533;28;20043;-67
2021/08/15 00:09:56;;;;;;;11.10;5.13;;;;;;;;;;5113267;28;20389;-69
2021/08/15 00:12:22;;;;;;;12.13;5.35;;;;;;;;;;5110241;28;20501;-68
2021/08/15 00:14:48;;;;;;;20.02;6.03;;;;;;;;;;5114572;28;20035;-67
2021/08/15 00:17:14;;;;;;;12.13;5.68;;;;;;;;;;5112654;28;20023;-68
2021/08/15 00:19:40;;;;;;;15.13;6.15;;;;;;;;;;5114218;28;20019;-67
2021/08/15 00:22:07;;;;;;;14.75;6.32;;;;;;;;;;5114643;28;20116;-68
2021/08/15 00:24:36;;;;;;;14.68;6.22;;;;;;;;;;5113389;28;20028;-67
2021/08/15 00:27:02;;;;;;;14.88;5.78;;;;;;;;;;5112931;28;20034;-67
2021/08/15 00:29:28;;;;;;;11.70;6.13;;;;;;;;;;5112499;28;20111;-68
2021/08/15 00:31:55;;;;;;;10.45;5.20;;;;;;;;;;5114064;28;20084;-67
2021/08/15 00:34:21;;;;;;;13.30;5.30;;;;;;;;;;5113891;28;20039;-67
2021/08/15 00:36:47;;;;;;;12.25;5.18;;;;;;;;;;5112144;28;20038;-67
2021/08/15 00:39:13;;;;;;;15.35;6.95;;;;;;;;;;5113347;28;20026;-68
2021/08/15 00:41:39;;;;;;;12.18;6.13;;;;;;;;;;5113220;28;20023;-67
2021/08/15 00:44:06;;;;;;;13.02;5.68;;;;;;;;;;5113942;28;20028;-67
2021/08/15 00:46:32;;;;;;;14.68;5.68;;;;;;;;;;5108430;28;20042;-68
2021/08/15 00:48:58;;;;;;;14.10;6.45;;;;;;;;;;5095498;28;20034;-68
2021/08/15 00:51:24;;;;;;;17.88;7.43;;;;;;;;;;5113498;28;20035;-68
2021/08/15 00:53:50;;;;;;;13.23;6.18;;;;;;;;;;5104986;28;20093;-67
2021/08/15 00:56:17;;;;;;;19.30;6.63;;;;;;;;;;5113831;27;20023;-67
2021/08/15 00:58:43;;;;;;;12.43;6.10;;;;;;;;;;5110663;28;20099;-67
2021/08/15 01:01:12;;;;;;;13.85;6.53;;;;;;;;;;5114266;28;20020;-68
2021/08/15 01:03:39;;;;;;;13.73;6.40;;;;;;;;;;5112987;28;20024;-67
2021/08/15 01:06:07;;;;;;;19.02;7.22;;;;;;;;;;5111350;28;20016;-67
2021/08/15 01:08:33;;;;;;;16.02;7.13;;;;;;;;;;5113221;28;20035;-67
2021/08/15 01:11:01;;;;;;;12.52;5.40;;;;;;;;;;5113737;28;20035;-67
2021/08/15 01:13:27;;;;;;;15.23;6.47;;;;;;;;;;5108722;28;20035;-68
2021/08/15 01:15:53;;;;;;;15.43;6.53;;;;;;;;;;5111406;28;20034;-68
2021/08/15 01:18:23;;;;;;;15.98;6.10;;;;;;;;;;5112208;28;20088;-68
2021/08/15 01:20:56;;;;;;;12.23;6.15;;;;;;;;;;5113929;28;20039;-67
2021/08/15 01:23:23;;;;;;;15.07;6.63;;;;;;;;;;5093940;28;20043;-68
2021/08/15 01:25:49;;;;;;;15.77;5.65;;;;;;;;;;5111996;28;20028;-68
2021/08/15 01:28:19;;;;;;;14.57;5.57;;;;;;;;;;5111772;28;20035;-69
2021/08/15 01:30:45;;;;;;;12.25;6.20;;;;;;;;;;5101337;28;20111;-68
2021/08/15 01:33:12;;;;;;;12.38;6.07;;;;;;;;;;5090667;28;20038;-68
2021/08/15 01:35:38;;;;;;;12.30;5.82;;;;;;;;;;5091806;28;20028;-68
2021/08/15 01:38:04;;;;;;;13.88;6.45;;;;;;;;;;5111576;28;20103;-68
2021/08/15 01:40:30;;;;;;;19.83;7.63;;;;;;;;;;5112200;28;20024;-67
2021/08/15 01:42:56;;;;;;;13.20;6.90;;;;;;;;;;5112169;28;20035;-68
2021/08/15 01:45:22;;;;;;;14.05;6.43;;;;;;;;;;5111500;28;20076;-67
2021/08/15 01:47:48;;;;;;;16.00;6.55;;;;;;;;;;5112584;28;20020;-67
2021/08/15 01:50:15;;;;;;;17.88;6.85;;;;;;;;;;5127410;27;20032;-67
2021/08/15 01:52:41;;;;;;;14.95;6.57;;;;;;;;;;5110530;28;20098;-67
2021/08/15 01:55:07;;;;;;;12.65;7.15;;;;;;;;;;5107878;28;20129;-68
2021/08/15 01:57:33;;;;;;;15.55;6.93;;;;;;;;;;5106656;27;20023;-67
2021/08/15 01:59:59;;;;;;;12.73;7.10;;;;;;;;;;5109661;28;20036;-68
2021/08/15 02:02:25;;;;;;;16.80;6.63;;;;;;;;;;5112955;28;20505;-67
2021/08/15 02:04:51;;;;;;;15.70;6.55;;;;;;;;;;5110479;28;20024;-67
2021/08/15 02:07:17;;;;;;;18.25;7.50;;;;;;;;;;5092359;28;20051;-67
2021/08/15 02:09:43;;;;;;;16.42;7.82;;;;;;;;;;5111481;28;20027;-67
2021/08/15 02:12:10;;;;;;;17.35;6.72;;;;;;;;;;5112928;28;20019;-67
2021/08/15 02:14:36;;;;;;;14.48;6.93;;;;;;;;;;5107104;28;20076;-67
2021/08/15 02:17:02;;;;;;;13.88;7.28;;;;;;;;;;5110540;28;20015;-67
2021/08/15 02:19:28;;;;;;;16.60;7.70;;;;;;;;;;5112223;28;20485;-67
2021/08/15 02:21:54;;;;;;;15.93;7.70;;;;;;;;;;5111437;28;20024;-67
2021/08/15 02:24:20;;;;;;;20.10;7.07;;;;;;;;;;5112519;28;20099;-68
2021/08/15 02:26:46;;;;;;;12.65;6.53;;;;;;;;;;5109649;28;20034;-67
2021/08/15 02:29:12;;;;;;;15.88;6.57;;;;;;;;;;5110548;28;20035;-68
2021/08/15 02:31:38;;;;;;;19.67;7.55;;;;;;;;;;5111418;28;20081;-67
2021/08/15 02:34:04;;;;;;;18.38;8.65;;;;;;;;;;5111149;28;20036;-67
2021/08/15 02:36:30;;;;;;;18.30;7.70;;;;;;;;;;5090940;28;20035;-67
2021/08/15 02:38:56;;;;;;;16.70;7.28;;;;;;;;;;5111778;28;20177;-68
2021/08/15 02:41:22;;;;;;;20.63;8.80;;;;;;;;;;5092962;28;20047;-67
2021/08/15 02:43:48;;;;;;;12.90;6.50;;;;;;;;;;5093851;28;20603;-67
2021/08/15 02:46:14;;;;;;;16.73;6.93;;;;;;;;;;5109519;28;20066;-67
2021/08/15 02:48:40;;;;;;;15.18;7.32;;;;;;;;;;5110625;28;20035;-67
2021/08/15 02:51:06;;;;;;;12.68;7.07;;;;;;;;;;5110584;28;20539;-67
2021/08/15 02:53:32;;;;;;;15.73;6.95;;;;;;;;;;5109655;28;20032;-67
2021/08/15 02:55:58;;;;;;;16.63;6.72;;;;;;;;;;5109256;28;20030;-68
2021/08/15 02:58:24;;;;;;;14.15;6.40;;;;;;;;;;5111054;28;20035;-68
2021/08/15 03:00:53;;;;;;;14.90;6.90;;;;;;;;;;5108962;28;20032;-68
2021/08/15 03:03:19;;;;;;;19.30;7.07;;;;;;;;;;5110719;28;20023;-67
2021/08/15 03:05:45;;;;;;;16.23;7.32;;;;;;;;;;5107811;28;20020;-67
2021/08/15 03:08:11;;;;;;;18.73;7.53;;;;;;;;;;5111123;28;20032;-68
2021/08/15 03:10:37;;;;;;;21.15;7.93;;;;;;;;;;5111506;28;20035;-67
2021/08/15 03:13:06;;;;;;;16.70;7.40;;;;;;;;;;5109647;28;20027;-67
2021/08/15 03:15:32;;;;;;;21.73;7.32;;;;;;;;;;5107915;28;20087;-67
2021/08/15 03:17:58;;;;;;;18.33;6.68;;;;;;;;;;5111027;28;20038;-68
2021/08/15 03:20:24;;;;;;;16.52;7.35;;;;;;;;;;5111153;28;20015;-68
2021/08/15 03:22:50;;;;;;;18.27;7.45;;;;;;;;;;5111278;28;21290;-67
2021/08/15 03:25:17;;;;;;;14.65;6.90;;;;;;;;;;5109720;28;20031;-67
2021/08/15 03:27:43;;;;;;;18.35;7.93;;;;;;;;;;5110565;28;20447;-67
2021/08/15 03:30:09;;;;;;;13.13;7.40;;;;;;;;;;5109688;28;20492;-67
2021/08/15 03:32:35;;;;;;;21.40;8.45;;;;;;;;;;5111071;28;20089;-68
2021/08/15 03:35:01;;;;;;;26.50;10.75;;;;;;;;;;5091492;28;20040;-67
2021/08/15 03:37:27;;;;;;;22.45;9.88;;;;;;;;;;5108356;28;20019;-68
2021/08/15 03:39:53;;;;;;;20.15;8.70;;;;;;;;;;5110223;28;20023;-68
2021/08/15 03:42:19;;;;;;;19.27;9.57;;;;;;;;;;5110375;28;20016;-68
2021/08/15 03:44:45;;;;;;;24.98;9.70;;;;;;;;;;5093153;28;20091;-68
2021/08/15 03:47:11;;;;;;;27.50;10.15;;;;;;;;;;5107197;28;20028;-68
2021/08/15 03:49:37;;;;;;;27.75;10.98;;;;;;;;;;5116343;27;20566;-68
2021/08/15 03:52:03;;;;;;;23.73;11.15;;;;;;;;;;5086839;28;20023;-68
2021/08/15 03:54:30;;;;;;;22.60;10.05;;;;;;;;;;5097721;28;20067;-68
2021/08/15 03:56:56;;;;;;;22.52;9.98;;;;;;;;;;5114540;28;20107;-68
2021/08/15 03:59:22;;;;;;;25.08;10.38;;;;;;;;;;5106302;28;20057;-68
2021/08/15 04:01:48;;;;;;;22.85;11.48;;;;;;;;;;5109374;28;20088;-67
2021/08/15 04:04:15;;;;;;;29.45;11.60;;;;;;;;;;5109018;28;20043;-68
2021/08/15 04:06:41;;;;;;;27.40;11.35;;;;;;;;;;5113398;28;20019;-67
2021/08/15 04:09:08;;;;;;;27.60;10.85;;;;;;;;;;5110430;28;20027;-68
2021/08/15 04:11:34;;;;;;;23.88;10.27;;;;;;;;;;5110728;28;20031;-68
2021/08/15 04:14:00;;;;;;;28.88;10.55;;;;;;;;;;5109405;28;20111;-67
2021/08/15 04:16:26;;;;;;;21.88;11.45;;;;;;;;;;5109700;28;20031;-68
2021/08/15 04:18:54;;;;;;;25.88;10.30;;;;;;;;;;5110140;28;20072;-67
2021/08/15 04:21:20;;;;;;;25.27;10.93;;;;;;;;;;5110646;28;20026;-67
2021/08/15 04:23:46;;;;;;;30.17;11.25;;;;;;;;;;5109859;28;20016;-68
2021/08/15 04:26:12;;;;;;;29.58;11.57;;;;;;;;;;5109134;28;20047;-67
2021/08/15 04:28:38;;;;;;;24.02;11.05;;;;;;;;;;5109339;28;20031;-68
2021/08/15 04:31:05;;;;;;;26.02;11.23;;;;;;;;;;5090909;28;20719;-68
2021/08/15 04:33:31;;;;;;;22.38;11.13;;;;;;;;;;5110213;28;20092;-68
2021/08/15 04:35:57;;;;;;;27.73;11.13;;;;;;;;;;5108703;28;20032;-68
2021/08/15 04:38:24;;;;;;;29.52;10.07;;;;;;;;;;5110183;28;20062;-68
2021/08/15 04:40:51;;;;;;;29.77;11.32;;;;;;;;;;5110094;28;20020;-68
2021/08/15 04:43:20;;;;;;;24.73;9.65;;;;;;;;;;5110204;28;20106;-67
2021/08/15 04:45:46;;;;;;;24.75;10.13;;;;;;;;;;5108435;28;20042;-68
2021/08/15 04:48:13;;;;;;;26.02;8.38;;;;;;;;;;5110096;28;20110;-68
2021/08/15 04:50:39;;;;;;;21.05;8.35;;;;;;;;;;5114673;28;20077;-68
2021/08/15 04:53:05;;;;;;;24.75;9.75;;;;;;;;;;5108921;28;20058;-67
2021/08/15 04:55:31;;;;;;;23.02;8.38;;;;;;;;;;5111719;28;20063;-67
2021/08/15 04:57:57;;;;;;;21.45;7.95;;;;;;;;;;5112507;28;20100;-68
2021/08/15 05:00:23;;;;;;;23.05;8.45;;;;;;;;;;5113229;28;20030;-68
2021/08/15 05:02:49;;;;;;;17.33;6.90;;;;;;;;;;5113400;28;20112;-68
2021/08/15 05:05:15;;;;;;;22.02;8.13;;;;;;;;;;5102171;28;20047;-68
2021/08/15 05:07:41;;;;;;;20.60;8.00;;;;;;;;;;5112134;28;20029;-68
2021/08/15 05:10:07;;;;;;;21.02;8.38;;;;;;;;;;5113491;28;20039;-68
2021/08/15 05:12:34;;;;;;;19.17;7.75;;;;;;;;;;5100248;28;20062;-68
2021/08/15 05:15:00;;;;;;;21.33;7.97;;;;;;;;;;5111142;28;20062;-68
2021/08/15 05:17:26;;;;;;;22.20;8.80;;;;;;;;;;5113113;28;20037;-68
2021/08/15 05:19:52;;;;;;;21.50;8.88;;;;;;;;;;5110533;28;20055;-68
2021/08/15 05:22:18;;;;;;;18.45;7.72;;;;;;;;;;5094905;28;20023;-68
2021/08/15 05:24:44;;;;;;;18.52;7.97;;;;;;;;;;5093766;28;20039;-68
2021/08/15 05:27:10;;;;;;;22.25;9.07;;;;;;;;;;5093737;28;20015;-68
2021/08/15 05:29:36;;;;;;;21.35;8.85;;;;;;;;;;5112461;28;20016;-67
2021/08/15 05:32:02;;;;;;;25.55;8.40;;;;;;;;;;5109489;28;20027;-68
2021/08/15 05:34:28;;;;;;;22.92;8.32;;;;;;;;;;5093414;28;20051;-68
2021/08/15 05:36:54;;;;;;;20.92;7.90;;;;;;;;;;5110521;28;20053;-68
2021/08/15 05:39:20;;;;;;;21.73;9.05;;;;;;;;;;5113201;28;20028;-68
2021/08/15 05:41:47;;;;;;;19.08;8.85;;;;;;;;;;5111277;28;20022;-68
2021/08/15 05:44:13;;;;;;;19.95;8.10;;;;;;;;;;5111616;28;20077;-68
2021/08/15 05:46:39;;;;;;;23.98;9.07;;;;;;;;;;5116100;27;20027;-68
2021/08/15 05:49:05;;;;;;;26.65;8.80;;;;;;;;;;5112008;28;20028;-68
2021/08/15 05:51:32;;;;;;;21.63;8.88;;;;;;;;;;5112786;28;20042;-68
2021/08/15 05:53:58;;;;;;;24.23;9.52;;;;;;;;;;5111438;28;20019;-68
2021/08/15 05:56:24;;;;;;;24.50;10.45;;;;;;;;;;5112710;27;20544;-67
2021/08/15 05:58:50;;;;;;;21.40;9.63;;;;;;;;;;5110231;28;20116;-68
2021/08/15 06:01:16;;;;;;;26.13;9.15;;;;;;;;;;5111383;28;20023;-68
2021/08/15 06:03:42;;;;;;;20.00;7.75;;;;;;;;;;5112695;28;20020;-68
2021/08/15 06:06:08;;;;;;;21.88;7.90;;;;;;;;;;5112507;27;20027;-68
2021/08/15 06:08:34;;;;;;;20.63;7.80;;;;;;;;;;5111183;28;20059;-67
2021/08/15 06:11:00;;;;;;;26.98;8.18;;;;;;;;;;5111208;28;20043;-68
2021/08/15 06:13:26;;;;;;;26.05;9.23;;;;;;;;;;5111199;28;20617;-68
2021/08/15 06:15:52;;;;;;;22.20;9.38;;;;;;;;;;5110783;28;20122;-68
2021/08/15 06:18:18;;;;;;;20.65;8.15;;;;;;;;;;5111368;28;20024;-68
2021/08/15 06:20:45;;;;;;;24.08;10.15;;;;;;;;;;5094113;28;20043;-68
2021/08/15 06:23:11;;;;;;;24.25;10.48;;;;;;;;;;5111956;28;20065;-68
2021/08/15 06:25:37;;;;;;;25.25;10.00;;;;;;;;;;5110123;28;20019;-68
2021/08/15 06:28:03;;;;;;;22.52;10.23;;;;;;;;;;5092847;28;20553;-68
2021/08/15 06:30:29;;;;;;;24.58;9.68;;;;;;;;;;5111987;28;20117;-68
2021/08/15 06:32:56;;;;;;;26.52;9.80;;;;;;;;;;5110971;28;20035;-68
2021/08/15 06:35:26;;;;;;;23.25;10.57;;;;;;;;;;5110120;28;20220;-68
2021/08/15 06:37:53;;;;;;;24.48;9.98;;;;;;;;;;5112166;28;20031;-68
2021/08/15 06:40:20;;;;;;;26.48;10.50;;;;;;;;;;5111742;28;20015;-68
2021/08/15 06:42:46;;;;;;;27.02;10.57;;;;;;;;;;5112656;28;20481;-68
2021/08/15 06:45:12;;;;;;;28.42;10.27;;;;;;;;;;5106392;28;20071;-68
2021/08/15 06:47:38;;;;;;;24.95;9.88;;;;;;;;;;5107671;27;20039;-68
2021/08/15 06:50:05;;;;;;;23.80;10.70;;;;;;;;;;5110966;28;20024;-68
2021/08/15 06:52:31;;;;;;;21.95;9.65;;;;;;;;;;5111485;28;20059;-68
2021/08/15 06:54:58;;;;;;;25.08;10.15;;;;;;;;;;5090613;28;20028;-68
2021/08/15 06:57:24;;;;;;;24.33;9.30;;;;;;;;;;5110724;28;20555;-68
2021/08/15 06:59:50;;;;;;;24.38;10.07;;;;;;;;;;5102247;28;20016;-68
2021/08/15 07:02:16;;;;;;;24.90;9.23;;;;;;;;;;5107617;28;20529;-67
2021/08/15 07:04:42;;;;;;;23.20;9.77;;;;;;;;;;5101804;28;20023;-68
2021/08/15 07:07:08;;;;;;;24.60;10.65;;;;;;;;;;5108075;28;20031;-68
2021/08/15 07:09:34;;;;;;;19.15;9.02;;;;;;;;;;5110408;28;20024;-68
2021/08/15 07:12:00;;;;;;;26.05;9.57;;;;;;;;;;5109462;28;20024;-67
2021/08/15 07:14:28;;;;;;;22.65;8.45;;;;;;;;;;5109327;28;20023;-68
2021/08/15 07:16:56;;;;;;;22.73;9.60;;;;;;;;;;5109563;28;20024;-68
2021/08/15 07:19:22;;;;;;;18.95;8.07;;;;;;;;;;5110995;28;20019;-67
2021/08/15 07:21:48;;;;;;;19.83;8.27;;;;;;;;;;5111319;28;20024;-68
2021/08/15 07:24:14;;;;;;;21.05;8.70;;;;;;;;;;5109894;28;20027;-68
2021/08/15 07:26:40;;;;;;;25.55;7.97;;;;;;;;;;5090057;28;20024;-67
2021/08/15 07:29:06;;;;;;;17.75;6.50;;;;;;;;;;5109463;28;20031;-67
2021/08/15 07:31:33;;;;;;;21.63;7.68;;;;;;;;;;5110325;28;20027;-68
2021/08/15 07:33:59;;;;;;;20.30;7.53;;;;;;;;;;5110092;28;20048;-67
2021/08/15 07:36:25;;;;;;;21.05;8.15;;;;;;;;;;5108840;28;20032;-68
2021/08/15 07:38:52;;;;;;;21.95;7.80;;;;;;;;;;5110180;28;20062;-67
2021/08/15 07:41:18;;;;;;;21.83;6.97;;;;;;;;;;5110449;27;20023;-67
2021/08/15 07:43:44;;;;;;;16.70;6.07;;;;;;;;;;5110948;28;20028;-68
2021/08/15 07:46:13;;;;;;;18.40;6.78;;;;;;;;;;5108314;28;20493;-68
2021/08/15 07:48:40;;;;;;;15.65;6.30;;;;;;;;;;5096242;28;20118;-67
2021/08/15 07:51:06;;;;;;;17.15;6.30;;;;;;;;;;5110419;28;20036;-68
2021/08/15 07:53:32;;;;;;;17.15;5.35;;;;;;;;;;5091568;28;20254;-68
2021/08/15 07:55:58;;;;;;;19.83;7.82;;;;;;;;;;5103453;28;20119;-67
2021/08/15 07:58:24;;;;;;;16.25;6.55;;;;;;;;;;5105486;28;20058;-68
2021/08/15 08:00:51;;;;;;;14.70;5.93;;;;;;;;;;5103780;28;20030;-68
2021/08/15 08:03:17;;;;;;;21.13;7.40;;;;;;;;;;5106055;28;20516;-68
2021/08/15 08:05:43;;;;;;;21.50;7.18;;;;;;;;;;5104840;28;20065;-67
2021/08/15 08:08:09;;;;;;;18.95;7.80;;;;;;;;;;5105800;28;20648;-67
2021/08/15 08:10:35;;;;;;;16.67;6.13;;;;;;;;;;5105665;28;20019;-68
2021/08/15 08:13:02;;;;;;;21.77;6.40;;;;;;;;;;5109081;28;20069;-68
2021/08/15 08:15:28;;;;;;;17.52;6.28;;;;;;;;;;5107082;28;20115;-68
2021/08/15 08:17:54;;;;;;;19.80;6.63;;;;;;;;;;5107599;28;20102;-67
2021/08/15 08:20:21;;;;;;;18.27;6.28;;;;;;;;;;5090639;28;20413;-68
2021/08/15 08:22:47;;;;;;;20.10;5.97;;;;;;;;;;5109876;28;20020;-67
2021/08/15 08:25:13;;;;;;;20.30;6.57;;;;;;;;;;5091743;28;20035;-68
2021/08/15 08:27:39;;;;;;;18.83;7.15;;;;;;;;;;5111553;28;20019;-68
2021/08/15 08:30:06;;;;;;;18.65;6.97;;;;;;;;;;5111151;28;20024;-68
2021/08/15 08:32:32;;;;;;;12.18;5.43;;;;;;;;;;5111734;28;20028;-67
2021/08/15 08:34:58;;;;;;;19.63;6.00;;;;;;;;;;5112092;28;20200;-68
2021/08/15 08:37:24;;;;;;;19.05;5.97;;;;;;;;;;5112109;28;20531;-67
2021/08/15 08:39:52;;;;;;;16.58;5.78;;;;;;;;;;5111954;28;20036;-68
2021/08/15 08:42:18;;;;;;;18.38;6.63;;;;;;;;;;5113079;28;20027;-67
2021/08/15 08:44:44;;;;;;;18.73;5.80;;;;;;;;;;5111295;28;20477;-68
2021/08/15 08:47:11;;;;;;;21.33;5.97;;;;;;;;;;5112041;27;20393;-67
2021/08/15 08:49:41;;;;;;;16.77;6.55;;;;;;;;;;5096074;28;20073;-67
2021/08/15 08:52:08;;;;;;;19.10;6.25;;;;;;;;;;5110552;28;20027;-67
2021/08/15 08:54:35;;;;;;;17.50;6.07;;;;;;;;;;5109189;28;20498;-67
2021/08/15 08:57:01;;;;;;;22.38;6.38;;;;;;;;;;5108156;28;20019;-67
2021/08/15 08:59:27;;;;;;;17.17;6.50;;;;;;;;;;5107514;28;20114;-67
2021/08/15 09:01:54;;;;;;;14.32;5.97;;;;;;;;;;5109750;28;20051;-67
2021/08/15 09:04:20;;;;;;;13.13;5.38;;;;;;;;;;5104716;28;20497;-68
2021/08/15 09:06:46;;;;;;;18.20;7.00;;;;;;;;;;5105200;27;20037;-67
2021/08/15 09:09:14;;;;;;;14.85;5.60;;;;;;;;;;5110605;28;20019;-67
2021/08/15 09:11:40;;;;;;;19.65;6.50;;;;;;;;;;5111272;28;20084;-67
2021/08/15 09:14:17;;;;;;;17.73;6.93;;;;;;;;;;5110246;28;20046;-68
2021/08/15 09:16:49;;;;;;;14.48;5.25;;;;;;;;;;5107915;28;20036;-68
2021/08/15 09:19:41;;;;;;;19.35;6.07;;;;;;;;;;5111145;28;20027;-66
2021/08/15 09:22:16;;;;;;;15.15;6.28;;;;;;;;;;5108838;28;20038;-66
2021/08/15 09:25:03;;;;;;;15.13;5.63;;;;;;;;;;5111986;28;20020;-67
2021/08/15 09:27:29;;;;;;;17.45;5.93;;;;;;;;;;5109200;28;20526;-67
2021/08/15 09:30:12;;;;;;;18.30;5.43;;;;;;;;;;5109135;28;20023;-68
2021/08/15 09:32:58;;;;;;;13.65;5.47;;;;;;;;;;5108835;28;20007;-67
2021/08/15 09:35:27;;;;;;;12.73;4.70;;;;;;;;;;5061844;28;20037;-67
2021/08/15 09:38:01;;;;;;;12.45;5.40;;;;;;;;;;5072365;28;20021;-67
2021/08/15 09:40:29;;;;;;;16.33;5.43;;;;;;;;;;5071693;28;20016;-67
2021/08/15 09:42:56;;;;;;;14.90;4.70;;;;;;;;;;5070737;28;20024;-67
2021/08/15 09:45:34;;;;;;;15.18;5.28;;;;;;;;;;5079013;28;20028;-67
2021/08/15 09:48:19;;;;;;;15.60;5.13;;;;;;;;;;5083842;28;20102;-67
2021/08/15 09:51:04;;;;;;;13.65;5.20;;;;;;;;;;5071662;28;20366;-68
2021/08/15 09:53:30;;;;;;;16.25;5.40;;;;;;;;;;5070735;28;20126;-67
2021/08/15 09:55:59;;;;;;;21.17;5.60;;;;;;;;;;5072150;28;20028;-66
2021/08/15 09:58:26;;;;;;;11.02;5.18;;;;;;;;;;5068085;28;20031;-67
2021/08/15 10:00:52;;;;;;;16.75;4.78;;;;;;;;;;5071557;28;20028;-67
2021/08/15 10:03:18;;;;;;;15.70;4.70;;;;;;;;;;5072492;28;20028;-67
2021/08/15 10:05:45;;;;;;;14.32;5.28;;;;;;;;;;5068805;28;20108;-68
2021/08/15 10:08:11;;;;;;;17.10;5.10;;;;;;;;;;5071444;28;20029;-67
2021/08/15 10:10:37;;;;;;;14.80;5.22;;;;;;;;;;5071646;28;20039;-67
2021/08/15 10:13:07;;;;;;;14.07;4.80;;;;;;;;;;5071264;28;20030;-67
2021/08/15 10:15:34;;;;;;;12.38;4.80;;;;;;;;;;5055421;28;20035;-67
2021/08/15 10:18:00;;;;;;;13.68;4.78;;;;;;;;;;5052129;28;20084;-67
2021/08/15 10:20:28;;;;;;;14.48;4.40;;;;;;;;;;5057256;28;20031;-67
2021/08/15 10:23:04;;;;;;;17.92;5.68;;;;;;;;;;5075593;28;20108;-67
2021/08/15 10:25:34;;;;;;;13.35;4.75;;;;;;;;;;5066789;28;20028;-68
2021/08/15 10:28:01;;;;;;;14.65;5.15;;;;;;;;;;5070756;28;20032;-68
2021/08/15 10:30:27;;;;;;;14.27;4.70;;;;;;;;;;5077384;28;20028;-65
2021/08/15 10:32:56;;;;;;;18.35;4.88;;;;;;;;;;5068272;28;20058;-67
2021/08/15 10:35:26;;;;;;;15.15;5.05;;;;;;;;;;5101631;28;20568;-67
2021/08/15 10:37:53;;;;;;;14.48;5.00;;;;;;;;;;5090127;28;20016;-68
2021/08/15 10:40:37;;;;;;;15.95;5.03;;;;;;;;;;5106826;28;20042;-68
2021/08/15 10:43:03;;;;;;;13.10;4.95;;;;;;;;;;5092342;28;20023;-67
2021/08/15 10:45:29;;;;;;;13.57;4.93;;;;;;;;;;5107186;28;20035;-67
2021/08/15 10:48:13;;;;;;;16.45;5.47;;;;;;;;;;5110202;28;20020;-67
2021/08/15 10:50:47;;;;;;;15.57;5.18;;;;;;;;;;5108126;28;20031;-66
2021/08/15 10:53:28;;;;;;;13.63;5.50;;;;;;;;;;5104322;28;20027;-67
2021/08/15 10:55:54;;;;;;;14.80;5.72;;;;;;;;;;5096761;28;20023;-69
2021/08/15 10:58:39;;;;;;;19.08;5.35;;;;;;;;;;5105447;28;20030;-68
2021/08/15 11:01:06;;;;;;;15.77;5.18;;;;;;;;;;5108305;28;20092;-67
2021/08/15 11:03:53;;;;;;;14.65;4.80;;;;;;;;;;5109583;28;20024;-67
2021/08/15 11:06:32;;;;;;;21.23;5.50;;;;;;;;;;5093776;28;20024;-67
2021/08/15 11:08:59;;;;;;;18.23;5.75;;;;;;;;;;5106808;28;20035;-67
2021/08/15 11:11:26;;;;;;;13.82;5.28;;;;;;;;;;5110075;28;20135;-67
2021/08/15 11:14:11;;;;;;;13.05;5.07;;;;;;;;;;5107566;28;20076;-68
2021/08/15 11:16:37;;;;;;;12.50;4.93;;;;;;;;;;5104518;28;20084;-69
2021/08/15 11:19:10;;;;;;;15.65;5.22;;;;;;;;;;5109272;28;20020;-68
2021/08/15 11:21:55;;;;;;;15.40;5.07;;;;;;;;;;5103012;28;20019;-67
2021/08/15 11:24:22;;;;;;;17.13;5.78;;;;;;;;;;5100767;28;20020;-67
2021/08/15 11:26:48;;;;;;;14.00;5.60;;;;;;;;;;5106093;28;20027;-68
2021/08/15 11:29:19;;;;;;;12.95;5.35;;;;;;;;;;5110636;28;20519;-67
2021/08/15 11:31:46;;;;;;;13.98;5.72;;;;;;;;;;5109165;28;20103;-67
2021/08/15 11:34:12;;;;;;;13.80;5.28;;;;;;;;;;5109089;28;20108;-68
2021/08/15 11:36:38;;;;;;;15.38;5.25;;;;;;;;;;5106749;28;20393;-68
2021/08/15 11:39:08;;;;;;;12.50;5.03;;;;;;;;;;5109586;28;20481;-68
2021/08/15 11:41:34;;;;;;;15.18;5.20;;;;;;;;;;5106306;28;20024;-67
2021/08/15 11:44:00;;;;;;;15.32;6.10;;;;;;;;;;5106889;28;20135;-67
2021/08/15 11:46:26;;;;;;;12.25;5.63;;;;;;;;;;5105637;28;20596;-67
2021/08/15 11:48:52;;;;;;;14.85;5.88;;;;;;;;;;5105645;28;20083;-68
2021/08/15 11:51:18;;;;;;;12.98;5.88;;;;;;;;;;5104804;28;20493;-67
2021/08/15 11:53:47;;;;;;;16.10;6.28;;;;;;;;;;5100892;28;20101;-66
2021/08/15 11:56:14;;;;;;;17.55;5.38;;;;;;;;;;5097595;28;20051;-67
2021/08/15 11:58:47;;;;;;;12.77;5.40;;;;;;;;;;5105870;28;20027;-67
2021/08/15 12:01:14;;;;;;;17.17;5.25;;;;;;;;;;5089238;28;20019;-68
2021/08/15 12:03:40;;;;;;;13.38;5.40;;;;;;;;;;5107067;28;20038;-68
2021/08/15 12:06:07;;;;;;;14.18;5.43;;;;;;;;;;5105514;28;20031;-69
2021/08/15 12:08:33;;;;;;;13.00;6.32;;;;;;;;;;5091435;28;20016;-67
2021/08/15 12:11:00;;;;;;;16.45;6.10;;;;;;;;;;5103745;28;20027;-67
2021/08/15 12:13:38;;;;;;;16.58;5.57;;;;;;;;;;5109344;28;20023;-68
2021/08/15 12:16:04;;;;;;;13.05;6.32;;;;;;;;;;5087586;28;20024;-68
2021/08/15 12:18:30;;;;;;;12.82;6.00;;;;;;;;;;5108159;28;20434;-67
2021/08/15 12:21:00;;;;;;;14.43;6.20;;;;;;;;;;5106453;28;20184;-68
2021/08/15 12:23:28;;;;;;;17.00;5.60;;;;;;;;;;5103716;28;20034;-68
2021/08/15 12:26:04;;;;;;;19.77;6.57;;;;;;;;;;5102494;28;20024;-68
2021/08/15 12:28:32;;;;;;;15.60;5.85;;;;;;;;;;5109838;28;20027;-68
2021/08/15 12:31:16;;;;;;;13.88;5.93;;;;;;;;;;5105031;28;20042;-68
2021/08/15 12:33:42;;;;;;;13.70;5.80;;;;;;;;;;5093390;28;20044;-69
2021/08/15 12:36:18;;;;;;;16.23;6.03;;;;;;;;;;5100428;28;20023;-68
2021/08/15 12:38:45;;;;;;;13.75;5.90;;;;;;;;;;5103480;28;20016;-67
2021/08/15 12:41:24;;;;;;;14.13;6.70;;;;;;;;;;5090342;28;20101;-68
2021/08/15 12:44:06;;;;;;;19.17;6.28;;;;;;;;;;5099403;28;20024;-68
2021/08/15 12:46:32;;;;;;;14.32;5.72;;;;;;;;;;5081434;28;20031;-68
2021/08/15 12:48:58;;;;;;;16.05;5.53;;;;;;;;;;5098187;28;20052;-67
2021/08/15 12:51:24;;;;;;;17.55;5.82;;;;;;;;;;5106523;28;20509;-68
2021/08/15 12:53:50;;;;;;;15.27;5.60;;;;;;;;;;5108270;28;20501;-68
2021/08/15 12:56:18;;;;;;;16.02;5.90;;;;;;;;;;5105257;28;20034;-67
2021/08/15 12:58:45;;;;;;;18.77;6.10;;;;;;;;;;5104907;28;20073;-68
2021/08/15 13:01:11;;;;;;;16.05;6.43;;;;;;;;;;5108437;28;20503;-68
2021/08/15 13:03:37;;;;;;;16.38;5.97;;;;;;;;;;5105259;28;20122;-66
2021/08/15 13:06:06;;;;;;;23.70;6.88;;;;;;;;;;5104835;28;20062;-68
2021/08/15 13:08:32;;;;;;;13.30;5.40;;;;;;;;;;5108580;28;20736;-68
2021/08/15 13:10:58;;;;;;;16.48;6.18;;;;;;;;;;5107349;28;20400;-68
2021/08/15 13:13:24;;;;;;;21.80;6.63;;;;;;;;;;5112199;28;20115;-67
2021/08/15 13:15:53;;;;;;;14.85;6.00;;;;;;;;;;5110800;28;20063;-67
2021/08/15 13:18:20;;;;;;;18.73;6.70;;;;;;;;;;5112970;28;20030;-67
2021/08/15 13:20:46;;;;;;;16.40;5.85;;;;;;;;;;5112915;28;20034;-67
2021/08/15 13:23:12;;;;;;;14.98;5.10;;;;;;;;;;5110522;28;20041;-68
2021/08/15 13:25:38;;;;;;;15.00;5.18;;;;;;;;;;5108257;28;20385;-67
2021/08/15 13:28:04;;;;;;;14.55;5.25;;;;;;;;;;5111917;28;20503;-68
2021/08/15 13:30:31;;;;;;;15.77;4.90;;;;;;;;;;5112541;28;20035;-68
2021/08/15 13:33:00;;;;;;;18.65;5.95;;;;;;;;;;5112630;28;20027;-68
2021/08/15 13:35:27;;;;;;;14.48;5.30;;;;;;;;;;5109228;28;20311;-67
2021/08/15 13:37:53;;;;;;;13.20;5.50;;;;;;;;;;5112436;28;20076;-67
2021/08/15 13:40:19;;;;;;;12.68;5.20;;;;;;;;;;5104285;28;20035;-67
2021/08/15 13:42:45;;;;;;;13.02;4.50;;;;;;;;;;5091755;28;20027;-68
2021/08/15 13:45:12;;;;;;;12.77;4.47;;;;;;;;;;5108195;28;20306;-66
2021/08/15 13:47:40;;;;;;;14.85;5.95;;;;;;;;;;5096815;28;20084;-67
2021/08/15 13:50:08;;;;;;;11.43;4.40;;;;;;;;;;5110785;28;20088;-67
2021/08/15 13:52:34;;;;;;;15.38;5.10;;;;;;;;;;5100624;28;20035;-67
2021/08/15 13:55:00;;;;;;;16.33;5.57;;;;;;;;;;5108279;28;20028;-68
2021/08/15 13:57:26;;;;;;;13.38;5.28;;;;;;;;;;5087251;28;20024;-68
2021/08/15 13:59:53;;;;;;;13.02;4.85;;;;;;;;;;5097108;28;20028;-67
2021/08/15 14:02:20;;;;;;;14.70;5.20;;;;;;;;;;5109642;28;20016;-68
2021/08/15 14:04:47;;;;;;;14.07;5.43;;;;;;;;;;5090246;28;20026;-68
2021/08/15 14:07:13;;;;;;;14.23;5.63;;;;;;;;;;5104111;27;20036;-67
2021/08/15 14:09:39;;;;;;;16.20;5.65;;;;;;;;;;5089567;28;20026;-68
2021/08/15 14:12:06;;;;;;;17.52;6.35;;;;;;;;;;5105992;28;20030;-69
2021/08/15 14:14:32;;;;;;;13.20;5.38;;;;;;;;;;5092192;28;20028;-67
2021/08/15 14:16:58;;;;;;;12.88;5.18;;;;;;;;;;5104960;28;20024;-69
2021/08/15 14:19:24;;;;;;;11.35;4.22;;;;;;;;;;5089906;28;20032;-68
2021/08/15 14:21:50;;;;;;;11.57;4.05;;;;;;;;;;5104724;28;20048;-67
2021/08/15 14:24:16;;;;;;;14.27;5.05;;;;;;;;;;5103846;28;20020;-69
2021/08/15 14:26:43;;;;;;;12.68;4.40;;;;;;;;;;5101349;28;20027;-68
2021/08/15 14:29:09;;;;;;;13.57;4.35;;;;;;;;;;5079958;28;20031;-68